Time;durP1;ratioP1;P1;durP2;ratioP2;P2;SDS_P1;SDS_P2;PMS_P1;PMS_P2;Temp;Humidity;BMP_temperature;BMP_pressure;BME280_temperature;BME280_humidity;BME280_pressure;Samples;Min_cycle;Max_cycle;Signal;HPM_P1;HPM_P2
2022/05/10 00:00:18;;;;;;;2.83;0.70;;;25.50;99.20;;;;;;4984620;28;20019;-55
2022/05/10 00:02:51;;;;;;;6.45;0.90;;;25.60;99.20;;;;;;4984621;28;20090;-58
2022/05/10 00:05:27;;;;;;;4.65;0.80;;;25.60;99.10;;;;;;4984522;28;20031;-58
2022/05/10 00:08:44;;;;;;;1.20;0.98;;;25.60;99.10;;;;;;4984675;28;20023;-57
2022/05/10 00:12:01;;;;;;;2.95;0.93;;;25.60;99.10;;;;;;4984322;28;20036;-57
2022/05/10 00:17:48;;;;;;;3.55;0.88;;;25.60;99.10;;;;;;4984543;28;20038;-58
2022/05/10 00:20:21;;;;;;;38.03;24.65;;;25.50;99.30;;;;;;4984469;28;20027;-55
2022/05/10 00:22:54;;;;;;;14.93;8.18;;;25.50;99.40;;;;;;4984185;28;20026;-55
2022/05/10 00:25:28;;;;;;;9.38;4.40;;;25.50;99.40;;;;;;4983640;28;20070;-55
2022/05/10 00:27:55;;;;;;;4.53;2.60;;;25.50;99.40;;;;;;4994952;28;20034;-55
2022/05/10 00:30:22;;;;;;;3.88;1.90;;;25.50;99.40;;;;;;4984361;28;20152;-56
2022/05/10 00:32:49;;;;;;;3.72;1.40;;;25.50;99.30;;;;;;4984402;28;20034;-55
2022/05/10 00:35:19;;;;;;;2.25;1.10;;;25.50;99.30;;;;;;4984450;28;20243;-55
2022/05/10 00:37:47;;;;;;;1.95;0.85;;;25.50;99.30;;;;;;4984417;28;20109;-57
2022/05/10 00:40:20;;;;;;;1.90;0.70;;;25.50;99.20;;;;;;4983895;28;20019;-55
2022/05/10 00:43:23;;;;;;;3.30;0.88;;;25.50;99.20;;;;;;4984467;28;20094;-57
2022/05/10 00:46:06;;;;;;;2.92;0.70;;;25.50;99.20;;;;;;4985455;28;20026;-55
2022/05/10 00:48:34;;;;;;;;;;;25.50;99.20;;;;;;4988456;28;20054;-56
2022/05/10 00:51:40;;;;;;;1.55;0.60;;;25.40;99.10;;;;;;4987787;28;19902;-57
2022/05/10 00:54:22;;;;;;;3.65;0.90;;;25.40;99.40;;;;;;4971055;28;20043;-57
2022/05/10 00:57:34;;;;;;;2.35;0.52;;;25.50;99.50;;;;;;4987354;28;20023;-55
2022/05/10 01:00:23;;;;;;;3.90;0.90;;;25.50;99.60;;;;;;4987410;28;20035;-58
2022/05/10 01:03:17;;;;;;;1.58;0.75;;;25.50;99.20;;;;;;4987727;28;20022;-54
2022/05/10 01:06:07;;;;;;;4.85;1.33;;;25.50;99.30;;;;;;4987362;28;20094;-56
2022/05/10 01:09:07;;;;;;;6.72;1.00;;;25.40;99.40;;;;;;4987548;28;20101;-56
2022/05/10 01:12:02;;;;;;;3.25;0.98;;;25.50;99.50;;;;;;4987298;28;20126;-56
2022/05/10 01:21:34;;;;;;;2.67;0.98;;;25.50;99.20;;;;;;4986626;28;20069;-62
2022/05/10 01:24:44;;;;;;;2.50;1.20;;;25.40;99.30;;;;;;4995685;28;20246;-62
2022/05/10 01:30:50;;;;;;;3.17;1.52;;;25.50;99.40;;;;;;4987199;28;20426;-62
2022/05/10 01:33:40;;;;;;;3.17;1.40;;;25.50;99.40;;;;;;4988112;28;20109;-63
2022/05/10 01:36:48;;;;;;;3.97;2.03;;;25.50;99.60;;;;;;4986797;28;20061;-63
2022/05/10 01:39:18;;;;;;;4.82;2.63;;;25.50;99.40;;;;;;4928703;29;20043;-61
2022/05/10 01:42:14;;;;;;;4.72;2.55;;;25.50;99.40;;;;;;4945078;29;20051;-60
2022/05/10 01:44:47;;;;;;;5.80;2.78;;;25.50;99.40;;;;;;4979798;28;20041;-59
2022/05/10 01:54:07;;;;;;;;;;;25.50;99.40;;;;;;4987363;28;20265;-60
2022/05/10 01:57:24;;;;;;;1.40;0.95;;;25.50;99.40;;;;;;4996466;28;20201;-61
2022/05/10 01:59:55;;;;;;;2.15;1.10;;;25.50;99.50;;;;;;4996938;28;20033;-60
2022/05/10 02:02:25;;;;;;;5.30;0.93;;;25.50;99.40;;;;;;4991626;28;20311;-61
2022/05/10 02:08:52;;;;;;;4.40;1.10;;;25.50;99.30;;;;;;4992387;28;20341;-61
2022/05/10 02:11:19;;;;;;;2.80;1.20;;;25.50;99.30;;;;;;4994345;28;20030;-61
2022/05/10 02:14:09;;;;;;;1.40;0.80;;;25.50;99.30;;;;;;4996325;28;20065;-61
2022/05/10 02:16:54;;;;;;;2.63;0.90;;;25.50;99.10;;;;;;4996591;28;20030;-61
2022/05/10 02:19:23;;;;;;;3.05;1.02;;;25.50;99.20;;;;;;4995700;28;20027;-60
2022/05/10 02:22:03;;;;;;;3.35;1.00;;;25.50;99.40;;;;;;4986089;28;20031;-62
2022/05/10 02:24:41;;;;;;;3.53;1.00;;;25.50;99.10;;;;;;4996766;28;20066;-61
2022/05/10 02:27:17;;;;;;;3.13;1.20;;;25.50;99.00;;;;;;4985950;28;20093;-60
2022/05/10 02:29:47;;;;;;;2.78;1.20;;;25.50;99.00;;;;;;4986054;28;20023;-61
2022/05/10 02:35:24;;;;;;;4.47;1.00;;;25.50;98.90;;;;;;4985920;28;20134;-60
2022/05/10 02:37:51;;;;;;;2.72;1.10;;;25.50;98.90;;;;;;4985576;28;20043;-60
2022/05/10 02:40:17;;;;;;;1.63;0.75;;;25.50;98.90;;;;;;4985832;28;20019;-60
2022/05/10 02:42:48;;;;;;;6.05;1.10;;;25.50;98.90;;;;;;4985849;28;20035;-60
2022/05/10 02:45:18;;;;;;;2.67;0.75;;;25.50;99.00;;;;;;4985618;28;20031;-59
2022/05/10 02:47:48;;;;;;;4.18;1.10;;;25.50;98.90;;;;;;4985924;28;20218;-59
2022/05/10 02:50:26;;;;;;;5.93;1.00;;;25.50;99.00;;;;;;4992910;28;20033;-60
2022/05/10 02:52:53;;;;;;;2.50;0.75;;;25.50;98.90;;;;;;4995594;28;20035;-60
2022/05/10 02:55:34;;;;;;;2.05;0.80;;;25.50;98.90;;;;;;4993933;28;20337;-60
2022/05/10 02:58:24;;;;;;;3.78;0.77;;;25.50;98.90;;;;;;4996423;28;20027;-58
2022/05/10 03:00:58;;;;;;;3.33;0.80;;;25.50;98.90;;;;;;4997756;28;20030;-59
2022/05/10 03:03:28;;;;;;;2.58;0.70;;;25.50;98.90;;;;;;5005170;28;20027;-60
2022/05/10 03:05:55;;;;;;;3.22;0.73;;;25.50;98.90;;;;;;5004698;28;20088;-56
2022/05/10 03:08:22;;;;;;;1.35;0.52;;;25.40;98.80;;;;;;5004753;28;20022;-58
2022/05/10 03:10:49;;;;;;;2.15;0.60;;;25.50;98.80;;;;;;5004287;28;20037;-63
2022/05/10 03:13:16;;;;;;;2.35;0.60;;;25.40;98.80;;;;;;5005116;28;20034;-60
2022/05/10 03:15:43;;;;;;;2.22;0.55;;;25.40;98.90;;;;;;4987435;28;20030;-59
2022/05/10 03:18:13;;;;;;;5.15;0.70;;;25.40;98.90;;;;;;5004866;28;20034;-58
2022/05/10 03:20:43;;;;;;;1.05;0.50;;;25.50;98.90;;;;;;5003253;28;20030;-58
2022/05/10 03:23:10;;;;;;;2.47;0.50;;;25.50;98.90;;;;;;4987639;28;20042;-59
2022/05/10 03:25:38;;;;;;;0.70;0.40;;;25.40;98.90;;;;;;4971376;28;20064;-58
2022/05/10 03:28:06;;;;;;;4.03;0.55;;;25.40;98.90;;;;;;5004748;28;20038;-59
2022/05/10 03:30:36;;;;;;;2.63;0.60;;;25.40;99.00;;;;;;5004267;28;20077;-60
2022/05/10 03:33:03;;;;;;;4.72;0.60;;;25.40;99.00;;;;;;5004299;28;20026;-57
2022/05/10 03:35:29;;;;;;;4.22;0.68;;;25.40;99.00;;;;;;5004433;28;20071;-59
2022/05/10 03:40:47;;;;;;;3.58;0.50;;;25.40;99.00;;;;;;5004497;28;20021;-57
2022/05/10 03:43:13;;;;;;;3.47;0.50;;;25.40;99.00;;;;;;5003746;28;20034;-59
2022/05/10 03:48:33;;;;;;;2.22;0.40;;;25.40;98.90;;;;;;5004611;28;20028;-59
2022/05/10 03:50:59;;;;;;;1.92;0.47;;;25.40;98.90;;;;;;5004425;28;20028;-60
2022/05/10 03:53:27;;;;;;;4.00;0.55;;;25.40;98.90;;;;;;5004537;28;20250;-59
2022/05/10 03:55:54;;;;;;;2.53;0.50;;;25.40;98.80;;;;;;5003385;28;20030;-59
2022/05/10 03:58:20;;;;;;;3.45;0.47;;;25.40;98.80;;;;;;4985284;28;20064;-59
2022/05/10 04:00:47;;;;;;;1.33;0.30;;;25.40;98.70;;;;;;4984831;28;20065;-59
2022/05/10 04:03:13;;;;;;;2.22;0.50;;;25.40;98.70;;;;;;4984833;28;20038;-58
2022/05/10 04:05:40;;;;;;;2.70;0.50;;;25.40;98.70;;;;;;4984741;28;20326;-55
2022/05/10 04:08:07;;;;;;;2.45;0.70;;;25.40;98.70;;;;;;4984636;28;20062;-59
2022/05/10 04:10:33;;;;;;;2.00;0.60;;;25.40;98.70;;;;;;4984580;28;20023;-59
2022/05/10 04:13:00;;;;;;;1.17;0.40;;;25.40;98.70;;;;;;4984996;28;20046;-58
2022/05/10 04:15:26;;;;;;;3.55;0.70;;;25.40;98.70;;;;;;4984603;28;20247;-60
2022/05/10 04:17:55;;;;;;;1.67;0.57;;;25.30;98.60;;;;;;4984540;28;20093;-58
2022/05/10 04:20:22;;;;;;;1.15;0.50;;;25.40;98.70;;;;;;4985052;28;20315;-58
2022/05/10 04:22:48;;;;;;;3.90;0.70;;;25.30;98.70;;;;;;4988589;28;20023;-57
2022/05/10 04:25:23;;;;;;;2.50;0.65;;;25.30;98.70;;;;;;4987484;28;20059;-57
2022/05/10 04:27:52;;;;;;;1.42;0.68;;;25.30;98.70;;;;;;4988431;28;20331;-59
2022/05/10 04:30:19;;;;;;;3.00;0.68;;;25.30;98.70;;;;;;4988299;28;20135;-58
2022/05/10 04:32:46;;;;;;;2.60;0.70;;;25.30;98.60;;;;;;4988254;28;20035;-58
2022/05/10 04:35:13;;;;;;;3.25;0.90;;;25.40;98.70;;;;;;4988104;28;20065;-59
2022/05/10 04:37:40;;;;;;;1.40;0.43;;;25.40;98.60;;;;;;4988421;28;20019;-58
2022/05/10 04:42:53;;;;;;;1.85;0.60;;;25.30;98.60;;;;;;4988282;28;20333;-60
2022/05/10 04:45:20;;;;;;;4.47;0.70;;;25.30;98.60;;;;;;4987983;28;20132;-60
2022/05/10 04:47:46;;;;;;;2.67;0.93;;;25.30;98.60;;;;;;4988240;28;20030;-61
2022/05/10 04:50:13;;;;;;;2.63;0.60;;;25.30;98.60;;;;;;4988095;28;20231;-57
2022/05/10 04:52:40;;;;;;;1.65;0.55;;;25.30;98.60;;;;;;4987892;28;20067;-58
2022/05/10 04:55:09;;;;;;;3.63;0.57;;;25.30;98.60;;;;;;4987825;28;20031;-59
2022/05/10 04:57:37;;;;;;;2.05;0.52;;;25.30;98.60;;;;;;4987781;28;20035;-56
2022/05/10 05:00:06;;;;;;;1.88;0.52;;;25.30;98.60;;;;;;4987914;28;20023;-60
2022/05/10 05:02:33;;;;;;;2.50;0.70;;;25.30;98.60;;;;;;4987932;28;20033;-58
2022/05/10 05:04:59;;;;;;;1.52;0.60;;;25.30;98.50;;;;;;4987736;28;20094;-59
2022/05/10 05:07:26;;;;;;;3.92;0.57;;;25.30;98.50;;;;;;4988660;28;20022;-57
2022/05/10 05:09:52;;;;;;;1.77;0.40;;;25.30;98.50;;;;;;5002987;28;20211;-58
2022/05/10 05:12:19;;;;;;;2.95;0.70;;;25.30;98.50;;;;;;5007010;28;20022;-59
2022/05/10 05:14:46;;;;;;;1.50;0.47;;;25.30;98.50;;;;;;5006737;28;20246;-60
2022/05/10 05:17:12;;;;;;;1.85;0.88;;;25.30;98.50;;;;;;4995325;28;20103;-59
2022/05/10 05:19:39;;;;;;;2.13;0.68;;;25.40;98.60;;;;;;4987461;28;20030;-58
2022/05/10 05:22:05;;;;;;;3.80;0.50;;;25.30;98.60;;;;;;5001123;28;20081;-60
2022/05/10 05:24:32;;;;;;;2.25;0.50;;;25.30;98.50;;;;;;4987128;28;20059;-61
2022/05/10 05:26:59;;;;;;;1.73;0.45;;;25.30;98.50;;;;;;4987309;28;20120;-62
2022/05/10 05:29:25;;;;;;;2.67;0.50;;;25.30;98.60;;;;;;4987621;28;20315;-60
2022/05/10 05:31:53;;;;;;;2.60;0.40;;;25.30;98.50;;;;;;4986453;28;20023;-59
2022/05/10 05:34:20;;;;;;;1.42;0.50;;;25.30;98.50;;;;;;4987334;28;20023;-60
2022/05/10 05:37:32;;;;;;;1.17;0.40;;;25.30;98.50;;;;;;4986895;28;20086;-60
2022/05/10 05:39:33;;;;;;;3.03;0.70;;;25.30;98.50;;;;;;4986561;28;20031;-61
2022/05/10 05:41:59;;;;;;;1.38;0.40;;;25.30;98.40;;;;;;4990361;28;20094;-61
2022/05/10 05:44:26;;;;;;;3.78;0.60;;;25.30;98.40;;;;;;5006868;28;20094;-59
2022/05/10 05:46:52;;;;;;;1.88;0.55;;;25.30;98.50;;;;;;4987359;28;20023;-62
2022/05/10 05:49:19;;;;;;;1.58;0.50;;;25.30;98.50;;;;;;4989425;28;20038;-60
2022/05/10 05:51:45;;;;;;;1.73;0.40;;;25.30;98.40;;;;;;5006313;28;20049;-61
2022/05/10 05:54:12;;;;;;;1.50;0.40;;;25.30;98.40;;;;;;5004282;28;20030;-61
2022/05/10 05:56:38;;;;;;;1.38;0.30;;;25.30;98.30;;;;;;4986764;28;20018;-59
2022/05/10 05:59:05;;;;;;;1.33;0.40;;;25.30;98.30;;;;;;4987062;28;20372;-61
2022/05/10 06:01:31;;;;;;;2.15;0.50;;;25.30;98.30;;;;;;4989291;28;20033;-61
2022/05/10 06:03:58;;;;;;;3.97;0.50;;;25.30;98.30;;;;;;4987017;28;20027;-61
2022/05/10 06:06:25;;;;;;;2.75;0.40;;;25.30;98.30;;;;;;4987278;28;20038;-61
2022/05/10 06:08:52;;;;;;;1.30;0.40;;;25.30;98.30;;;;;;5006264;28;20313;-61
2022/05/10 06:11:18;;;;;;;4.20;0.47;;;25.30;98.30;;;;;;5005863;28;20045;-61
2022/05/10 06:13:45;;;;;;;3.20;0.40;;;25.30;98.30;;;;;;5003401;28;20225;-61
2022/05/10 06:16:11;;;;;;;2.30;0.55;;;25.30;98.30;;;;;;4986337;28;20061;-60
2022/05/10 06:18:38;;;;;;;5.70;0.57;;;25.30;98.30;;;;;;4996715;28;20036;-62
2022/05/10 06:21:05;;;;;;;3.28;0.50;;;25.30;98.40;;;;;;4986139;28;20066;-61
2022/05/10 06:23:32;;;;;;;2.05;0.30;;;25.30;98.30;;;;;;4986382;28;20064;-62
2022/05/10 06:25:58;;;;;;;2.03;0.63;;;25.30;98.20;;;;;;4986145;28;20118;-61
2022/05/10 06:28:25;;;;;;;2.03;0.40;;;25.20;98.30;;;;;;4986637;28;20026;-62
2022/05/10 06:30:51;;;;;;;4.05;0.52;;;25.30;98.30;;;;;;4986136;28;20022;-61
2022/05/10 06:33:18;;;;;;;2.67;0.35;;;25.30;98.20;;;;;;4986316;28;20031;-61
2022/05/10 06:35:45;;;;;;;3.47;0.60;;;25.20;98.20;;;;;;4985816;28;20030;-61
2022/05/10 06:38:19;;;;;;;3.47;0.75;;;25.20;98.20;;;;;;4986142;28;20321;-60
2022/05/10 06:40:47;;;;;;;2.30;0.75;;;25.20;98.20;;;;;;4985854;28;20329;-61
2022/05/10 06:43:13;;;;;;;1.38;0.60;;;25.20;98.20;;;;;;4985721;28;20038;-59
2022/05/10 06:45:41;;;;;;;4.50;0.80;;;25.20;98.10;;;;;;4985911;28;20094;-60
2022/05/10 06:48:08;;;;;;;2.33;0.57;;;25.20;98.20;;;;;;4985875;28;20037;-60
2022/05/10 06:50:37;;;;;;;1.42;0.47;;;25.20;98.10;;;;;;4985550;28;20123;-61
2022/05/10 06:53:04;;;;;;;3.25;0.70;;;25.20;98.10;;;;;;4985770;28;20074;-61
2022/05/10 06:55:33;;;;;;;2.83;0.43;;;25.20;98.00;;;;;;4985669;28;20311;-60
2022/05/10 06:58:03;;;;;;;4.18;0.50;;;25.20;98.00;;;;;;4985601;28;20352;-61
2022/05/10 07:00:32;;;;;;;1.75;0.50;;;25.20;97.90;;;;;;4985567;28;20019;-61
2022/05/10 07:02:58;;;;;;;3.13;0.40;;;25.20;97.90;;;;;;4985604;28;20054;-62
2022/05/10 07:05:25;;;;;;;5.35;0.52;;;25.20;97.90;;;;;;4985511;28;20034;-60
2022/05/10 07:07:52;;;;;;;6.63;0.60;;;25.20;97.90;;;;;;4985491;28;20033;-61
2022/05/10 07:10:19;;;;;;;2.72;0.30;;;25.20;97.90;;;;;;4985369;28;20027;-63
2022/05/10 07:12:46;;;;;;;1.65;0.50;;;25.20;97.80;;;;;;4985301;28;20049;-63
2022/05/10 07:15:16;;;;;;;4.22;0.40;;;25.10;97.80;;;;;;4985174;28;20034;-60
2022/05/10 07:17:42;;;;;;;5.90;0.55;;;25.10;97.80;;;;;;4985415;28;20027;-60
2022/05/10 07:20:11;;;;;;;5.35;0.60;;;25.20;97.90;;;;;;4985152;28;20018;-61
2022/05/10 07:22:38;;;;;;;5.30;0.70;;;25.10;97.80;;;;;;4985333;28;20295;-61
2022/05/10 07:25:06;;;;;;;6.18;0.50;;;25.10;97.80;;;;;;4984878;28;20046;-60
2022/05/10 07:27:33;;;;;;;4.45;0.60;;;25.10;97.80;;;;;;4985233;28;20045;-61
2022/05/10 07:30:00;;;;;;;2.65;0.50;;;25.10;97.80;;;;;;4985143;28;20029;-60
2022/05/10 07:32:27;;;;;;;3.75;0.45;;;25.10;97.90;;;;;;4985115;28;20207;-60
2022/05/10 07:34:54;;;;;;;2.22;0.43;;;25.10;97.90;;;;;;4985106;28;20380;-61
2022/05/10 07:37:21;;;;;;;5.15;0.90;;;25.10;98.00;;;;;;4984936;28;20026;-61
2022/05/10 07:39:47;;;;;;;3.80;0.50;;;25.10;98.00;;;;;;4984945;28;20026;-61
2022/05/10 07:42:14;;;;;;;3.47;0.50;;;25.10;98.10;;;;;;4984872;28;20023;-61
2022/05/10 07:44:40;;;;;;;3.15;0.45;;;25.10;98.10;;;;;;4984962;28;20011;-62
2022/05/10 07:47:09;;;;;;;6.18;0.60;;;25.10;98.10;;;;;;4985026;28;20231;-60
2022/05/10 07:49:35;;;;;;;3.67;0.40;;;25.10;98.10;;;;;;4985375;28;20042;-60
2022/05/10 07:52:04;;;;;;;4.95;0.45;;;25.10;98.10;;;;;;4984937;28;20018;-61
2022/05/10 07:54:31;;;;;;;4.93;0.47;;;25.10;98.20;;;;;;4985357;28;20315;-62
2022/05/10 07:56:57;;;;;;;2.97;0.60;;;25.10;98.20;;;;;;4987804;28;20057;-62
2022/05/10 07:59:24;;;;;;;3.55;0.40;;;25.10;98.30;;;;;;4989433;28;20341;-62
2022/05/10 08:01:51;;;;;;;4.97;0.50;;;25.10;98.20;;;;;;4988809;28;20042;-61
2022/05/10 08:04:17;;;;;;;2.88;0.40;;;25.10;98.20;;;;;;4989091;28;20304;-61
2022/05/10 08:06:46;;;;;;;3.47;0.40;;;25.10;98.20;;;;;;4988767;28;20023;-61
2022/05/10 08:09:13;;;;;;;1.70;0.40;;;25.10;98.10;;;;;;4989065;28;20033;-60
2022/05/10 08:11:39;;;;;;;2.78;0.45;;;25.10;98.10;;;;;;4988529;28;20207;-59
2022/05/10 08:14:06;;;;;;;4.07;0.73;;;25.10;98.10;;;;;;4989046;28;20034;-57
2022/05/10 08:16:33;;;;;;;4.82;0.50;;;25.10;98.00;;;;;;4988574;28;20369;-57
2022/05/10 08:19:00;;;;;;;3.17;0.65;;;25.10;98.00;;;;;;4988844;28;20030;-56
2022/05/10 08:21:26;;;;;;;4.35;0.40;;;25.10;98.00;;;;;;4988757;28;20018;-60
2022/05/10 08:23:55;;;;;;;4.50;0.63;;;25.10;97.90;;;;;;4988886;28;20027;-61
2022/05/10 08:26:22;;;;;;;3.58;0.52;;;25.10;97.90;;;;;;4988173;28;20055;-61
2022/05/10 08:28:49;;;;;;;6.30;0.60;;;25.10;97.90;;;;;;4988683;28;20056;-61
2022/05/10 08:31:16;;;;;;;4.57;0.40;;;25.10;97.90;;;;;;4988364;28;20033;-61
2022/05/10 08:33:44;;;;;;;10.25;0.90;;;25.10;98.00;;;;;;4988393;28;20034;-61
2022/05/10 08:36:11;;;;;;;6.05;1.10;;;25.10;97.90;;;;;;4988147;28;20030;-61
2022/05/10 08:38:38;;;;;;;7.25;0.82;;;25.00;97.80;;;;;;4988426;28;20027;-60
2022/05/10 08:41:26;;;;;;;3.38;0.60;;;25.10;97.90;;;;;;4988002;28;20025;-60
2022/05/10 08:44:24;;;;;;;7.80;0.60;;;25.00;97.90;;;;;;4988562;28;20068;-60
2022/05/10 08:46:59;;;;;;;8.05;1.00;;;25.10;98.00;;;;;;4937056;28;20230;-60
2022/05/10 08:49:25;;;;;;;4.28;0.40;;;25.10;98.00;;;;;;4988384;28;20019;-60
2022/05/10 08:51:53;;;;;;;4.03;0.52;;;25.00;97.90;;;;;;4987869;28;20074;-60
2022/05/10 08:54:21;;;;;;;5.28;0.55;;;25.00;98.00;;;;;;4988393;28;20023;-61
2022/05/10 08:56:54;;;;;;;4.40;0.47;;;25.00;98.00;;;;;;4987733;28;20046;-62
2022/05/10 08:59:42;;;;;;;6.43;0.75;;;25.00;98.00;;;;;;4988294;28;20030;-60
2022/05/10 09:02:15;;;;;;;6.50;0.95;;;25.00;98.10;;;;;;4987555;28;20015;-63
2022/05/10 09:04:57;;;;;;;3.28;0.60;;;25.00;98.10;;;;;;4987684;28;20081;-61
2022/05/10 09:07:38;;;;;;;6.72;0.70;;;25.00;98.00;;;;;;4987609;28;20061;-61
2022/05/10 09:10:24;;;;;;;9.88;1.10;;;25.00;98.00;;;;;;4987656;28;20022;-61
2022/05/10 09:12:56;;;;;;;3.85;0.60;;;25.00;97.90;;;;;;4987742;28;20042;-62
2022/05/10 09:15:22;;;;;;;14.82;0.70;;;25.00;98.00;;;;;;4987525;28;20259;-60
2022/05/10 09:17:49;;;;;;;7.88;0.77;;;25.00;98.00;;;;;;4987394;28;20030;-62
2022/05/10 09:20:16;;;;;;;8.50;0.77;;;25.00;98.00;;;;;;4987467;28;20041;-61
2022/05/10 09:23:26;;;;;;;5.40;0.55;;;25.00;98.10;;;;;;4987525;28;20329;-61
2022/05/10 09:25:56;;;;;;;9.07;0.90;;;25.00;98.10;;;;;;4987282;28;20073;-61
2022/05/10 09:28:44;;;;;;;9.05;0.70;;;25.00;98.00;;;;;;4987304;28;20098;-61
2022/05/10 09:37:13;;;;;;;5.40;0.70;;;25.00;98.10;;;;;;5003937;28;20037;-60
2022/05/10 09:39:49;;;;;;;4.05;0.85;;;25.00;98.10;;;;;;5006690;28;20030;-56
2022/05/10 09:42:32;;;;;;;7.95;0.80;;;25.00;98.10;;;;;;4998144;28;20082;-56
2022/05/10 09:45:00;;;;;;;9.98;0.85;;;25.00;98.10;;;;;;4986696;28;20022;-58
2022/05/10 09:47:27;;;;;;;6.95;0.75;;;24.90;98.00;;;;;;4994088;28;20028;-61
2022/05/10 09:49:54;;;;;;;6.25;0.73;;;24.90;98.10;;;;;;5006374;28;20029;-63
2022/05/10 09:52:24;;;;;;;7.57;0.80;;;25.00;98.10;;;;;;5006199;28;20025;-62
2022/05/10 09:54:56;;;;;;;5.07;0.85;;;24.90;98.00;;;;;;5005877;28;20041;-61
2022/05/10 09:57:33;;;;;;;4.63;0.57;;;24.90;98.10;;;;;;4986776;28;20050;-61
2022/05/10 10:00:00;;;;;;;6.53;0.95;;;24.90;98.10;;;;;;4986452;28;20026;-61
2022/05/10 10:02:36;;;;;;;9.48;0.90;;;24.90;98.10;;;;;;4986428;28;20026;-61
2022/05/10 10:05:24;;;;;;;7.40;0.85;;;24.90;98.00;;;;;;4986448;28;20204;-60
2022/05/10 10:07:53;;;;;;;8.05;1.10;;;24.90;98.00;;;;;;4986632;28;20031;-60
2022/05/10 10:10:34;;;;;;;5.45;1.00;;;24.90;98.10;;;;;;4986439;28;20021;-60
2022/05/10 10:13:32;;;;;;;11.10;1.40;;;24.90;98.10;;;;;;5005882;28;20101;-60
2022/05/10 10:16:00;;;;;;;8.55;0.95;;;24.90;98.10;;;;;;5005727;28;20033;-58
2022/05/10 10:19:06;;;;;;;10.05;1.38;;;24.90;98.10;;;;;;5005512;28;20088;-61
2022/05/10 10:21:56;;;;;;;7.30;1.05;;;24.90;98.20;;;;;;4957700;28;20030;-61
2022/05/10 10:24:51;;;;;;;5.63;1.10;;;24.90;98.20;;;;;;5005872;28;20296;-61
2022/05/10 10:27:38;;;;;;;8.77;1.40;;;24.90;98.20;;;;;;5005473;28;20026;-60
2022/05/10 10:30:17;;;;;;;7.32;1.33;;;24.90;98.20;;;;;;5005539;28;20072;-60
2022/05/10 10:32:49;;;;;;;19.48;1.30;;;24.90;98.20;;;;;;5005555;28;20027;-60
2022/05/10 10:35:38;;;;;;;7.00;0.90;;;24.90;98.20;;;;;;5005405;28;20082;-61
2022/05/10 10:38:20;;;;;;;6.72;1.10;;;24.90;98.30;;;;;;5005550;28;20026;-63
2022/05/10 10:41:01;;;;;;;8.73;1.25;;;24.90;98.30;;;;;;4987189;28;20026;-61
2022/05/10 10:43:34;;;;;;;7.75;1.42;;;24.90;98.30;;;;;;4999308;28;20073;-59
2022/05/10 10:46:10;;;;;;;12.18;1.20;;;24.90;98.40;;;;;;5005223;28;20026;-60
2022/05/10 10:48:58;;;;;;;11.13;1.20;;;24.90;98.40;;;;;;5005522;28;20026;-61
2022/05/10 10:51:31;;;;;;;7.78;1.30;;;24.90;98.30;;;;;;5005158;28;20314;-61
2022/05/10 10:53:59;;;;;;;6.72;1.58;;;24.90;98.30;;;;;;5005428;28;20249;-61
2022/05/10 10:56:33;;;;;;;8.60;2.65;;;24.90;98.40;;;;;;5004997;28;20026;-60
2022/05/10 10:59:31;;;;;;;11.00;4.05;;;24.90;98.50;;;;;;5004731;28;20200;-60
2022/05/10 11:02:22;;;;;;;17.17;3.90;;;24.90;98.50;;;;;;5004936;28;20226;-60
2022/05/10 11:05:06;;;;;;;8.25;3.47;;;24.90;98.50;;;;;;5004701;28;20037;-54
2022/05/10 11:07:59;;;;;;;8.02;3.05;;;25.00;98.60;;;;;;5004841;28;20021;-55
2022/05/10 11:10:38;;;;;;;13.30;3.58;;;25.00;98.70;;;;;;5004130;28;20093;-55
2022/05/10 11:13:18;;;;;;;7.72;3.53;;;25.00;98.70;;;;;;4985357;28;20295;-56
2022/05/10 11:16:03;;;;;;;9.10;5.00;;;25.00;98.70;;;;;;4983435;28;20034;-52
2022/05/10 11:19:05;;;;;;;10.48;4.53;;;25.00;98.70;;;;;;4983942;28;20093;-56
2022/05/10 11:22:10;;;;;;;10.52;5.55;;;25.10;98.70;;;;;;4983611;28;20202;-56
2022/05/10 11:24:43;;;;;;;7.85;3.80;;;25.00;98.70;;;;;;4980848;28;20295;-56
2022/05/10 11:27:31;;;;;;;9.93;3.58;;;25.10;98.70;;;;;;4983839;28;20023;-55
2022/05/10 11:30:45;;;;;;;8.50;3.45;;;25.10;98.70;;;;;;4983951;28;20023;-56
2022/05/10 11:33:30;;;;;;;8.63;3.50;;;25.10;98.70;;;;;;4925782;29;20035;-58
2022/05/10 11:35:57;;;;;;;8.13;3.42;;;25.10;98.60;;;;;;4984990;28;20330;-55
2022/05/10 11:38:40;;;;;;;7.50;3.67;;;25.10;98.60;;;;;;4985161;28;20054;-55
2022/05/10 11:41:52;;;;;;;7.97;3.40;;;25.10;98.50;;;;;;4984776;28;20025;-55
2022/05/10 11:44:36;;;;;;;6.75;3.70;;;25.10;98.50;;;;;;4985264;28;20196;-55
2022/05/10 11:47:08;;;;;;;5.75;3.25;;;25.10;98.50;;;;;;4985068;28;20027;-55
2022/05/10 11:49:44;;;;;;;;;;;25.10;98.60;;;;;;4985146;28;20031;-55
2022/05/10 11:52:28;;;;;;;7.70;3.42;;;25.10;98.60;;;;;;4984857;28;19924;-57
2022/05/10 11:54:58;;;;;;;7.15;3.17;;;25.20;98.70;;;;;;4984688;28;20030;-57
2022/05/10 11:57:26;;;;;;;7.95;3.10;;;25.20;98.70;;;;;;4984830;28;20023;-59
2022/05/10 11:59:53;;;;;;;7.45;3.30;;;25.20;98.70;;;;;;4984652;28;20025;-57
2022/05/10 12:02:45;;;;;;;9.77;2.70;;;25.20;98.60;;;;;;4984626;28;20246;-58
2022/05/10 12:05:14;;;;;;;9.27;3.60;;;25.20;98.60;;;;;;4976952;28;20035;-54
2022/05/10 12:07:45;;;;;;;6.82;3.42;;;25.20;98.70;;;;;;4984775;28;20031;-58
2022/05/10 12:10:30;;;;;;;7.05;4.13;;;25.30;98.70;;;;;;4984710;28;20030;-56
2022/05/10 12:13:04;;;;;;;7.95;3.60;;;25.30;98.60;;;;;;4984969;28;20081;-58
2022/05/10 12:21:22;;;;;;;6.22;2.55;;;25.30;98.60;;;;;;4984679;28;20034;-56
2022/05/10 12:24:04;;;;;;;8.13;2.95;;;25.30;98.60;;;;;;4984896;28;20222;-54
2022/05/10 12:26:45;;;;;;;6.82;2.60;;;25.30;98.50;;;;;;4984671;28;20330;-55
2022/05/10 12:29:39;;;;;;;6.70;2.30;;;25.40;98.50;;;;;;4984743;28;20314;-55
2022/05/10 12:32:18;;;;;;;5.95;1.80;;;25.40;98.60;;;;;;4984563;28;20322;-56
2022/05/10 12:34:56;;;;;;;6.68;2.00;;;25.40;98.50;;;;;;4984277;28;20118;-54
2022/05/10 12:37:29;;;;;;;9.85;2.30;;;25.50;98.60;;;;;;4992648;28;20026;-56
2022/05/10 12:40:18;;;;;;;9.02;1.67;;;25.40;98.40;;;;;;4985207;28;20023;-53
2022/05/10 12:43:09;;;;;;;6.72;1.70;;;25.50;98.40;;;;;;5006504;28;20026;-53
2022/05/10 12:45:38;;;;;;;8.25;1.63;;;25.60;98.30;;;;;;5007445;28;20018;-54
2022/05/10 12:48:27;;;;;;;3.85;1.23;;;25.50;98.10;;;;;;5007567;28;20041;-53
2022/05/10 12:51:20;;;;;;;7.38;1.40;;;25.60;98.10;;;;;;5007379;28;20245;-56
2022/05/10 12:53:49;;;;;;;4.53;1.05;;;25.60;97.90;;;;;;5007551;28;20102;-54
2022/05/10 12:56:32;;;;;;;3.13;1.00;;;25.60;97.90;;;;;;4995699;28;20104;-59
2022/05/10 12:59:07;;;;;;;;;;;25.70;97.90;;;;;;4988436;28;20030;-56
2022/05/10 13:01:37;;;;;;;7.50;0.80;;;25.70;97.80;;;;;;4987828;28;19909;-56
2022/05/10 13:04:17;;;;;;;5.80;0.90;;;25.70;97.80;;;;;;4987462;28;20361;-55
2022/05/10 13:07:09;;;;;;;4.50;0.93;;;25.70;97.60;;;;;;4987656;28;20323;-54
2022/05/10 13:09:40;;;;;;;4.97;0.98;;;25.70;97.70;;;;;;4987960;28;20031;-56
2022/05/10 13:12:12;;;;;;;4.75;0.90;;;25.70;97.80;;;;;;4988029;28;20046;-56
2022/05/10 13:14:44;;;;;;;3.30;0.95;;;25.70;97.80;;;;;;4988417;28;20065;-54
2022/05/10 13:17:19;;;;;;;4.90;0.93;;;25.70;97.80;;;;;;4987349;28;20308;-54
2022/05/10 13:19:46;;;;;;;5.30;0.90;;;25.70;97.80;;;;;;4987529;28;20023;-51
2022/05/10 13:22:18;;;;;;;5.65;0.70;;;25.70;97.80;;;;;;4987273;28;20022;-55
2022/05/10 13:24:47;;;;;;;3.95;0.85;;;25.70;97.90;;;;;;4987043;28;20057;-57
2022/05/10 13:27:29;;;;;;;6.95;1.00;;;25.70;98.00;;;;;;4990948;28;20026;-54
2022/05/10 13:30:03;;;;;;;4.13;0.60;;;25.70;98.00;;;;;;4987863;28;20026;-53
2022/05/10 13:32:33;;;;;;;4.40;0.80;;;25.70;98.00;;;;;;4987116;28;20031;-54
2022/05/10 13:35:14;;;;;;;5.25;1.50;;;25.70;98.00;;;;;;4987026;28;20026;-56
2022/05/10 13:37:54;;;;;;;3.13;1.20;;;25.70;98.10;;;;;;4987802;28;20306;-54
2022/05/10 13:40:46;;;;;;;5.47;0.90;;;25.70;98.00;;;;;;4986907;28;20026;-55
2022/05/10 13:43:24;;;;;;;6.15;1.20;;;25.80;98.10;;;;;;4986503;28;20246;-56
2022/05/10 13:45:53;;;;;;;3.72;1.05;;;25.80;98.00;;;;;;4992391;28;20074;-54
2022/05/10 13:48:31;;;;;;;2.45;1.20;;;25.80;98.00;;;;;;4991937;28;20069;-54
2022/05/10 13:51:23;;;;;;;5.63;1.20;;;25.80;97.90;;;;;;4987578;28;20030;-51
2022/05/10 13:54:04;;;;;;;4.72;0.88;;;25.80;97.70;;;;;;4991967;28;20142;-53
2022/05/10 13:56:38;;;;;;;5.00;1.00;;;25.80;97.80;;;;;;5005433;28;20072;-54
2022/05/10 13:59:06;;;;;;;8.43;1.17;;;25.80;97.80;;;;;;4996750;28;20031;-49
2022/05/10 14:01:41;;;;;;;4.35;1.25;;;25.80;97.70;;;;;;4986916;28;20066;-50
2022/05/10 14:04:13;;;;;;;4.75;1.30;;;25.80;97.60;;;;;;4996903;28;20314;-52
2022/05/10 14:06:46;;;;;;;5.67;1.17;;;25.90;97.50;;;;;;4986857;28;20022;-51
2022/05/10 14:09:16;;;;;;;4.90;1.17;;;25.90;97.50;;;;;;4987037;28;20284;-48
2022/05/10 14:11:44;;;;;;;3.92;1.23;;;25.90;97.40;;;;;;4986535;28;20326;-52